YMAV/AVV METAR and TAF weather

Enter ICAO airport designator
Station Type Date Time Source
YMAV METAR 2020/01/27 17:00 UTC NOAA

YMAV 271700Z AUTO 28005KT 9999 // NCD 12/12 Q1014


Station Type Date Time Source
YMAV Decoded METAR 2020/01/27 17:00 UTC NOAA

Avalon, Avalon Airport, Australia (YMAV) 38-02S 144-29E
Jan 27, 2020 - 12:00 PM EST / 2020.01.27 1700 UTC
Wind: from the W (280 degrees) at 6 MPH (5 KT):0
Visibility: greater than 7 mile(s):0
Temperature: 53 F (12 C)
Dew Point: 53 F (12 C)
Relative Humidity: 100%
Pressure (altimeter): 29.94 in. Hg (1014 hPa)
ob: YMAV 271700Z AUTO 28005KT 9999 // NCD 12/12 Q1014
cycle: 17

Station Type Date Time Source
YMAV TAF 2020/01/27 17:39 UTC NOAA

TAF TAF
AMD YMAV 271637Z 2717/2818 32005KT 9999 FEW010
BECMG 2722/2800 24008KT 9999 FEW030
FM280200 15012KT CAVOK
FM280900 16007KT 9999 FEW010
FM281300 VRB03KT 9999 SCT010 PROB30 2717/2721 0500 FG

Example: see airport list